createdAt,value
2018-06-15T00:00:53.130Z,82.00
2018-06-15T00:03:23.458Z,81.90
2018-06-15T00:05:53.894Z,82.00
2018-06-15T00:08:24.195Z,82.80
2018-06-15T00:10:54.523Z,82.00
2018-06-15T00:13:24.850Z,82.00
2018-06-15T00:15:55.197Z,82.10
2018-06-15T00:18:25.527Z,82.00
2018-06-15T00:20:55.960Z,82.10
2018-06-15T00:23:26.312Z,82.10
2018-06-15T00:25:56.801Z,82.20
2018-06-15T00:28:27.320Z,82.50
2018-06-15T00:30:57.680Z,82.50
2018-06-15T00:33:27.970Z,82.60
2018-06-15T00:35:58.220Z,82.70
2018-06-15T00:38:28.618Z,82.60
2018-06-15T00:41:00.335Z,82.70
2018-06-15T00:43:30.732Z,82.70
2018-06-15T00:46:01.193Z,82.80
2018-06-15T00:48:31.530Z,82.90
2018-06-15T00:51:01.925Z,82.80
2018-06-15T00:53:32.357Z,82.90
2018-06-15T00:56:02.731Z,83.10
2018-06-15T00:58:33.212Z,83.00
2018-06-15T01:01:03.732Z,83.00
2018-06-15T01:03:34.241Z,83.10
2018-06-15T01:06:04.625Z,82.90
2018-06-15T01:08:35.088Z,82.90
2018-06-15T01:11:05.598Z,82.90
2018-06-15T01:13:35.941Z,83.70
2018-06-15T01:16:06.537Z,82.90
2018-06-15T01:18:36.997Z,82.80
2018-06-15T01:21:07.671Z,82.80
2018-06-15T01:23:37.976Z,82.80
2018-06-15T01:26:08.295Z,82.70
2018-06-15T01:28:38.628Z,82.70
2018-06-15T01:31:08.985Z,82.70
2018-06-15T01:33:39.443Z,82.80
2018-06-15T01:36:09.833Z,82.70
2018-06-15T01:38:40.236Z,83.60
2018-06-15T01:41:10.554Z,82.70
2018-06-15T01:43:41.080Z,82.80
2018-06-15T01:46:11.452Z,83.50
2018-06-15T01:48:41.731Z,82.60
2018-06-15T01:51:11.984Z,82.50
2018-06-15T01:53:42.269Z,82.40
2018-06-15T01:56:12.577Z,82.40
2018-06-15T01:58:43.012Z,82.40
2018-06-15T02:01:13.314Z,82.40
2018-06-15T02:03:43.729Z,82.60
2018-06-15T02:06:14.012Z,82.70
2018-06-15T02:08:44.360Z,82.70
2018-06-15T02:11:14.651Z,82.90
2018-06-15T02:13:44.985Z,83.00
2018-06-15T02:16:15.336Z,83.20
2018-06-15T02:18:45.752Z,83.30
2018-06-15T02:21:16.099Z,83.20
2018-06-15T02:23:46.350Z,83.40
2018-06-15T02:26:16.696Z,83.40
2018-06-15T02:28:47.212Z,83.40
2018-06-15T02:31:17.536Z,83.60
2018-06-15T02:33:47.913Z,83.70
2018-06-15T02:36:18.209Z,83.90
2018-06-15T02:38:48.538Z,84.00
2018-06-15T02:41:18.781Z,84.90
2018-06-15T02:43:49.213Z,84.10
2018-06-15T02:46:19.639Z,84.20
2018-06-15T02:48:49.942Z,84.20
2018-06-15T02:51:20.263Z,84.30
2018-06-15T02:53:50.568Z,84.50
2018-06-15T02:56:21.048Z,84.40
2018-06-15T02:58:51.419Z,84.40
2018-06-15T03:01:21.757Z,84.30
2018-06-15T03:03:52.063Z,84.60
2018-06-15T03:06:22.476Z,84.80
2018-06-15T03:08:52.993Z,84.80
2018-06-15T03:11:23.616Z,85.00
2018-06-15T03:13:54.001Z,85.00
2018-06-15T03:16:24.561Z,84.90
2018-06-15T03:18:55.138Z,85.70
2018-06-15T03:21:25.555Z,85.10
2018-06-15T03:23:55.949Z,85.40
2018-06-15T03:26:26.494Z,85.30
2018-06-15T03:28:56.897Z,85.60
2018-06-15T03:31:27.588Z,85.60
2018-06-15T03:33:58.833Z,85.60
2018-06-15T03:36:30.270Z,85.50
2018-06-15T03:39:00.944Z,85.70
2018-06-15T03:41:31.455Z,85.60
2018-06-15T03:44:01.937Z,85.70
2018-06-15T03:46:32.424Z,86.00
2018-06-15T03:49:02.873Z,86.00
2018-06-15T03:51:33.270Z,86.00
2018-06-15T03:54:04.152Z,86.00
2018-06-15T03:56:36.527Z,85.70
2018-06-15T03:59:07.040Z,85.50
2018-06-15T04:01:37.460Z,85.60
2018-06-15T04:04:08.087Z,85.30
2018-06-15T04:06:38.533Z,85.30
2018-06-15T04:09:10.748Z,85.50
2018-06-15T04:11:41.104Z,85.40
2018-06-15T04:14:11.363Z,85.60
2018-06-15T04:16:41.812Z,85.60
2018-06-15T04:19:12.420Z,85.70
2018-06-15T04:21:42.428Z,86.00
2018-06-15T04:24:12.513Z,86.10
2018-06-15T04:26:42.570Z,86.40
2018-06-15T04:29:12.725Z,86.20
2018-06-15T04:31:42.687Z,86.00
2018-06-15T04:34:12.701Z,85.90
2018-06-15T04:36:42.648Z,85.80
2018-06-15T04:39:12.641Z,85.80
2018-06-15T04:41:42.556Z,85.90
2018-06-15T04:44:12.614Z,85.80
2018-06-15T04:46:42.601Z,85.80
2018-06-15T04:49:12.567Z,86.10
2018-06-15T04:51:42.493Z,86.50
2018-06-15T04:54:12.456Z,86.60
2018-06-15T04:56:42.522Z,86.70
2018-06-15T04:59:13.061Z,86.80
2018-06-15T05:01:48.068Z,86.90
2018-06-15T05:04:19.037Z,87.10
2018-06-15T05:06:50.310Z,87.30
2018-06-15T05:09:20.906Z,87.30
2018-06-15T05:11:51.532Z,87.70
2018-06-15T05:14:22.042Z,87.70
2018-06-15T05:16:52.708Z,87.70
2018-06-15T05:19:23.218Z,87.50
2018-06-15T05:21:53.673Z,87.50
2018-06-15T05:24:27.701Z,87.70
2018-06-15T05:26:58.074Z,87.60
2018-06-15T05:29:28.582Z,87.60
2018-06-15T05:31:59.126Z,87.40
2018-06-15T05:34:29.559Z,87.10
2018-06-15T05:37:00.093Z,87.00
2018-06-15T05:39:30.594Z,86.80
2018-06-15T05:42:01.229Z,86.90
2018-06-15T05:44:31.771Z,86.90
2018-06-15T05:47:02.440Z,87.00
2018-06-15T05:49:33.330Z,87.00
2018-06-15T05:52:04.824Z,87.10
2018-06-15T05:54:35.771Z,87.00
2018-06-15T05:57:06.474Z,86.80
2018-06-15T05:59:37.178Z,86.70
2018-06-15T06:02:08.018Z,86.70
2018-06-15T06:04:38.608Z,86.50
2018-06-15T06:07:09.233Z,86.40
2018-06-15T06:09:39.772Z,86.30
2018-06-15T06:12:10.440Z,86.20
2018-06-15T06:14:40.947Z,86.10
2018-06-15T06:17:11.578Z,86.00
2018-06-15T06:19:42.322Z,85.70
2018-06-15T06:22:12.801Z,85.70
2018-06-15T06:24:43.409Z,85.60
2018-06-15T06:27:14.069Z,85.30
2018-06-15T06:29:44.729Z,85.30
2018-06-15T06:32:15.268Z,85.20
2018-06-15T06:34:46.364Z,85.10
2018-06-15T06:37:17.111Z,85.00
2018-06-15T06:39:47.582Z,84.70
2018-06-15T06:42:18.175Z,84.60
2018-06-15T06:44:48.734Z,84.60
2018-06-15T06:47:19.326Z,84.40
2018-06-15T06:49:49.775Z,84.40
2018-06-15T06:52:20.254Z,84.20
2018-06-15T06:54:50.821Z,84.00
2018-06-15T06:57:21.334Z,84.00
2018-06-15T06:59:51.917Z,83.70
2018-06-15T07:02:22.426Z,83.60
2018-06-15T07:04:52.929Z,83.50
2018-06-15T07:07:23.334Z,83.20
2018-06-15T07:09:53.773Z,83.10
2018-06-15T07:12:24.074Z,82.90
2018-06-15T07:14:56.170Z,82.50
2018-06-15T07:17:26.787Z,82.20
2018-06-15T07:19:57.119Z,81.80
2018-06-15T07:22:27.518Z,81.50
2018-06-15T07:24:58.135Z,80.90
2018-06-15T07:27:28.782Z,80.40
2018-06-15T07:29:59.272Z,80.10
2018-06-15T07:32:29.858Z,79.40
2018-06-15T07:35:00.478Z,79.50
2018-06-15T07:37:31.093Z,79.40
2018-06-15T07:40:01.771Z,79.00
2018-06-15T07:42:32.450Z,79.00
2018-06-15T07:45:03.002Z,78.70
2018-06-15T07:47:33.565Z,78.00
2018-06-15T07:50:04.213Z,77.20
2018-06-15T07:52:35.633Z,77.00
2018-06-15T07:55:06.314Z,76.80
2018-06-15T07:57:36.796Z,76.50
2018-06-15T08:00:07.679Z,76.20
2018-06-15T08:02:39.301Z,76.10
2018-06-15T08:05:09.976Z,76.00
2018-06-15T08:07:40.472Z,75.50
2018-06-15T08:10:11.010Z,75.20
2018-06-15T08:12:41.631Z,74.80
2018-06-15T08:15:12.157Z,74.70
2018-06-15T08:17:42.693Z,75.10
2018-06-15T08:20:13.134Z,74.80
2018-06-15T08:22:43.701Z,74.70
2018-06-15T08:25:14.324Z,74.90
2018-06-15T08:27:44.933Z,75.00
2018-06-15T08:30:15.575Z,74.70
2018-06-15T08:32:46.129Z,74.50
2018-06-15T08:35:16.617Z,74.40
2018-06-15T08:37:47.011Z,74.00
2018-06-15T08:40:17.453Z,73.20
2018-06-15T08:42:47.993Z,71.80
2018-06-15T08:45:18.413Z,70.60
2018-06-15T08:47:48.892Z,70.20
2018-06-15T08:50:19.303Z,69.30
2018-06-15T08:52:49.903Z,68.40
2018-06-15T08:55:20.110Z,68.80
2018-06-15T08:57:50.228Z,68.60
2018-06-15T09:00:20.368Z,67.80
2018-06-15T09:02:50.492Z,66.70
2018-06-15T09:05:20.623Z,66.20
2018-06-15T09:07:50.853Z,66.10
2018-06-15T09:10:26.811Z,64.70
2018-06-15T09:12:56.994Z,63.80
2018-06-15T09:15:27.149Z,63.10
2018-06-15T09:17:57.289Z,63.60
2018-06-15T09:20:27.521Z,63.70
2018-06-15T09:22:57.821Z,62.60
2018-06-15T09:25:28.004Z,61.50
2018-06-15T09:27:58.147Z,60.30
2018-06-15T09:30:28.281Z,59.60
2018-06-15T09:32:58.570Z,59.70
2018-06-15T09:35:28.784Z,59.30
2018-06-15T09:37:58.921Z,59.40
2018-06-15T09:40:29.084Z,58.70
2018-06-15T09:42:59.255Z,58.80
2018-06-15T09:45:29.367Z,58.10
2018-06-15T09:47:59.549Z,58.50
2018-06-15T09:50:29.772Z,57.70
2018-06-15T09:52:59.953Z,57.80
2018-06-15T09:55:30.188Z,58.10
2018-06-15T09:58:00.334Z,58.30
2018-06-15T10:00:35.643Z,58.40
2018-06-15T10:03:05.766Z,58.50
2018-06-15T10:05:35.970Z,58.50
2018-06-15T10:08:06.266Z,58.40
2018-06-15T10:10:36.493Z,58.40
2018-06-15T10:13:06.772Z,58.20
2018-06-15T10:15:36.941Z,57.80
2018-06-15T10:18:07.169Z,57.70
2018-06-15T10:20:37.333Z,57.30
2018-06-15T10:23:07.649Z,57.10
2018-06-15T10:25:37.877Z,56.90
2018-06-15T10:28:08.091Z,56.90
2018-06-15T10:30:38.324Z,56.90
2018-06-15T10:33:09.050Z,56.90
2018-06-15T10:35:39.630Z,56.80
2018-06-15T10:38:09.987Z,56.50
2018-06-15T10:40:40.295Z,55.90
2018-06-15T10:43:10.429Z,55.50
2018-06-15T10:45:40.579Z,55.50
2018-06-15T10:48:11.386Z,55.70
2018-06-15T10:50:41.975Z,55.50
2018-06-15T10:53:12.153Z,55.20
2018-06-15T10:55:42.373Z,54.70
2018-06-15T10:58:12.570Z,54.70
2018-06-15T11:00:42.753Z,54.60
2018-06-15T11:03:12.921Z,54.00
2018-06-15T11:05:43.087Z,54.10
2018-06-15T11:08:13.252Z,53.80
2018-06-15T11:10:43.513Z,53.10
2018-06-15T11:13:13.752Z,52.50
2018-06-15T11:15:43.881Z,51.90
2018-06-15T11:18:14.017Z,52.10
2018-06-15T11:20:44.249Z,52.10
2018-06-15T11:23:14.394Z,51.60
2018-06-15T11:25:44.700Z,51.60
2018-06-15T11:28:14.768Z,51.40
2018-06-15T11:30:45.014Z,51.40
2018-06-15T11:33:15.283Z,51.40
2018-06-15T11:35:45.439Z,51.40
2018-06-15T11:38:15.585Z,51.20
2018-06-15T11:40:45.778Z,50.20
2018-06-15T11:43:15.962Z,50.40
2018-06-15T11:45:46.191Z,50.70
2018-06-15T11:48:16.452Z,50.60
2018-06-15T11:50:46.673Z,50.50
2018-06-15T11:53:16.781Z,50.50
2018-06-15T11:55:46.993Z,50.40
2018-06-15T11:58:17.323Z,50.60
2018-06-15T12:00:47.536Z,50.70
2018-06-15T12:03:17.806Z,50.40
2018-06-15T12:05:47.979Z,50.40
2018-06-15T12:08:18.172Z,50.00
2018-06-15T12:10:48.441Z,49.70
2018-06-15T12:13:18.672Z,49.30
2018-06-15T12:15:48.860Z,48.20
2018-06-15T12:18:19.072Z,48.10
2018-06-15T12:20:49.340Z,48.50
2018-06-15T12:23:19.548Z,47.80
2018-06-15T12:25:53.158Z,47.80
2018-06-15T12:28:24.210Z,47.60
2018-06-15T12:30:54.278Z,47.00
2018-06-15T12:33:24.350Z,47.00
2018-06-15T12:35:54.302Z,47.00
2018-06-15T12:38:24.336Z,46.40
2018-06-15T12:40:54.327Z,46.20
2018-06-15T12:43:24.311Z,45.60
2018-06-15T12:45:54.398Z,45.70
2018-06-15T12:48:24.412Z,45.50
2018-06-15T12:50:54.483Z,45.10
2018-06-15T12:53:26.783Z,44.10
2018-06-15T12:56:01.432Z,44.20
2018-06-15T12:58:48.849Z,43.50
2018-06-15T13:01:19.807Z,42.80
2018-06-15T13:03:50.612Z,42.60
2018-06-15T13:06:20.588Z,42.30
2018-06-15T13:08:50.730Z,42.30
2018-06-15T13:11:21.718Z,42.80
2018-06-15T13:13:52.269Z,42.50
2018-06-15T13:16:22.341Z,42.70
2018-06-15T13:18:52.393Z,42.50
2018-06-15T13:21:22.464Z,41.70
2018-06-15T13:23:52.527Z,42.20
2018-06-15T13:26:22.596Z,42.50
2018-06-15T13:28:52.598Z,41.50
2018-06-15T13:31:22.611Z,41.40
2018-06-15T13:33:52.550Z,41.30
2018-06-15T13:36:23.541Z,41.10
2018-06-15T13:39:03.642Z,41.10
2018-06-15T13:46:19.998Z,42.00
2018-06-15T13:48:49.974Z,42.40
2018-06-15T13:51:21.641Z,42.30
2018-06-15T13:53:52.939Z,42.10
2018-06-15T13:56:27.869Z,42.10
2018-06-15T13:59:00.846Z,41.90
2018-06-15T14:01:31.635Z,41.70
2018-06-15T14:04:03.108Z,41.70
2018-06-15T14:06:35.815Z,41.60
2018-06-15T14:09:08.289Z,41.50
2018-06-15T14:11:39.340Z,41.50
2018-06-15T14:14:10.080Z,41.60
2018-06-15T14:16:40.606Z,41.60
2018-06-15T14:19:11.412Z,40.90
2018-06-15T14:21:42.053Z,40.70
2018-06-15T14:24:12.616Z,40.50
2018-06-15T14:26:43.277Z,40.50
2018-06-15T14:29:13.834Z,40.10
2018-06-15T14:31:44.307Z,39.80
2018-06-15T14:34:14.928Z,39.60
2018-06-15T14:36:45.476Z,39.90
2018-06-15T14:39:16.099Z,39.90
2018-06-15T14:41:46.956Z,39.70
2018-06-15T14:44:17.656Z,39.70
2018-06-15T14:46:48.302Z,39.70
2018-06-15T14:49:18.821Z,39.20
2018-06-15T14:51:49.441Z,38.50
2018-06-15T14:54:20.000Z,38.50
2018-06-15T14:56:50.750Z,38.20
2018-06-15T14:59:21.314Z,38.40
2018-06-15T15:01:52.569Z,38.60
2018-06-15T15:04:23.253Z,39.00
2018-06-15T15:06:53.956Z,38.90
2018-06-15T15:09:24.713Z,39.20
2018-06-15T15:11:54.706Z,38.40
2018-06-15T15:14:24.798Z,38.30
2018-06-15T15:16:55.096Z,38.20
2018-06-15T15:19:25.117Z,38.00
2018-06-15T15:21:55.530Z,37.80
2018-06-15T15:24:25.754Z,37.70
2018-06-15T15:26:55.784Z,37.40
2018-06-15T15:29:25.796Z,37.60
2018-06-15T15:31:55.701Z,37.60
2018-06-15T15:34:25.606Z,37.10
2018-06-15T15:36:55.555Z,37.10
2018-06-15T15:39:25.571Z,37.00
2018-06-15T15:41:55.536Z,36.90
2018-06-15T15:44:25.727Z,37.00
2018-06-15T15:46:55.770Z,37.10
2018-06-15T15:49:25.868Z,37.10
2018-06-15T15:51:55.818Z,36.90
2018-06-15T15:54:25.912Z,37.00
2018-06-15T15:56:55.929Z,36.90
2018-06-15T15:59:26.016Z,36.70
2018-06-15T16:01:55.959Z,36.60
2018-06-15T16:04:26.197Z,36.70
2018-06-15T16:06:56.201Z,36.80
2018-06-15T16:09:26.141Z,36.70
2018-06-15T16:11:56.381Z,36.60
2018-06-15T16:14:26.332Z,36.70
2018-06-15T16:16:56.358Z,36.40
2018-06-15T16:19:26.361Z,36.60
2018-06-15T16:21:56.423Z,36.60
2018-06-15T16:24:26.293Z,36.40
2018-06-15T16:26:56.327Z,36.40
2018-06-15T16:29:26.349Z,36.40
2018-06-15T16:31:56.326Z,36.40
2018-06-15T16:34:26.357Z,36.30
2018-06-15T16:36:56.360Z,36.30
2018-06-15T16:39:26.421Z,36.60
2018-06-15T16:41:56.414Z,36.80
2018-06-15T16:44:26.441Z,36.80
2018-06-15T16:46:56.432Z,36.70
2018-06-15T16:49:26.659Z,36.80
2018-06-15T16:51:56.707Z,36.90
2018-06-15T16:54:26.630Z,36.70
2018-06-15T16:56:56.789Z,36.50
2018-06-15T16:59:26.787Z,36.50
2018-06-15T17:01:56.966Z,36.50
2018-06-15T17:04:27.053Z,36.60
2018-06-15T17:06:57.034Z,36.70
2018-06-15T17:09:27.051Z,36.70
2018-06-15T17:12:00.579Z,36.80
2018-06-15T17:14:30.532Z,36.90
2018-06-15T17:17:00.557Z,36.80
2018-06-15T17:19:30.489Z,36.70
2018-06-15T17:22:00.632Z,36.90
2018-06-15T17:24:30.610Z,37.10
2018-06-15T17:27:00.736Z,37.30
2018-06-15T17:29:30.735Z,37.50
2018-06-15T17:32:01.137Z,37.70
2018-06-15T17:34:31.185Z,37.60
2018-06-15T17:37:03.037Z,37.60
2018-06-15T17:39:33.061Z,37.70
2018-06-15T17:42:03.164Z,37.70
2018-06-15T17:44:33.282Z,37.80
2018-06-15T17:47:03.279Z,38.00
2018-06-15T17:49:33.297Z,38.20
2018-06-15T17:52:03.363Z,38.40
2018-06-15T17:54:33.445Z,38.60
2018-06-15T17:57:03.711Z,38.70
2018-06-15T17:59:34.045Z,38.80
2018-06-15T18:02:04.252Z,39.00
2018-06-15T18:04:34.291Z,39.30
2018-06-15T18:07:04.452Z,39.50
2018-06-15T18:09:34.602Z,39.80
2018-06-15T18:12:04.724Z,40.20
2018-06-15T18:14:34.978Z,40.50
2018-06-15T18:17:05.141Z,40.60
2018-06-15T18:19:35.204Z,40.90
2018-06-15T18:22:05.437Z,41.10
2018-06-15T18:24:35.531Z,41.30
2018-06-15T18:27:05.712Z,41.70
2018-06-15T18:29:35.666Z,42.00
2018-06-15T18:32:05.775Z,42.30
2018-06-15T18:34:37.746Z,42.50
2018-06-15T18:37:08.169Z,42.70
2018-06-15T18:39:38.154Z,42.90
2018-06-15T18:42:08.205Z,43.10
2018-06-15T18:44:38.267Z,43.30
2018-06-15T18:47:08.601Z,43.40
2018-06-15T18:49:38.624Z,43.50
2018-06-15T18:52:08.670Z,43.60
2018-06-15T18:54:38.801Z,43.80
2018-06-15T18:57:09.814Z,43.80
2018-06-15T18:59:40.545Z,44.00
2018-06-15T19:02:11.709Z,44.10
2018-06-15T19:04:42.424Z,44.10
2018-06-15T19:07:12.976Z,44.20
2018-06-15T19:09:42.934Z,44.30
2018-06-15T19:12:12.847Z,44.40
2018-06-15T19:14:42.887Z,44.70
2018-06-15T19:17:12.915Z,45.00
2018-06-15T19:19:43.044Z,45.20
2018-06-15T19:22:13.014Z,45.40
2018-06-15T19:24:43.131Z,45.40
2018-06-15T19:27:13.188Z,45.50
2018-06-15T19:29:43.189Z,45.20
2018-06-15T19:32:13.175Z,45.20
2018-06-15T19:34:43.240Z,45.20
2018-06-15T19:37:13.329Z,45.20
2018-06-15T19:39:43.564Z,45.40
2018-06-15T19:42:13.738Z,45.50
2018-06-15T19:44:43.735Z,45.60
2018-06-15T19:47:14.171Z,45.70
2018-06-15T19:49:51.933Z,45.60
2018-06-15T19:52:21.985Z,45.90
2018-06-15T19:54:51.929Z,46.40
2018-06-15T19:57:21.894Z,46.70
2018-06-15T19:59:52.034Z,46.90
2018-06-15T20:05:29.196Z,47.20
2018-06-15T20:07:59.239Z,47.80
2018-06-15T20:10:29.239Z,48.00
2018-06-15T20:12:59.251Z,48.00
2018-06-15T20:15:29.330Z,48.10
2018-06-15T20:17:59.370Z,48.30
2018-06-15T20:20:29.490Z,48.50
2018-06-15T20:22:59.517Z,48.50
2018-06-15T20:25:29.561Z,48.20
2018-06-15T20:27:59.639Z,48.30
2018-06-15T20:30:29.727Z,48.20
2018-06-15T20:32:59.729Z,48.10
2018-06-15T20:35:29.802Z,48.30
2018-06-15T20:37:59.801Z,48.80
2018-06-15T20:40:29.849Z,49.90
2018-06-15T20:42:59.851Z,49.90
2018-06-15T20:45:29.795Z,49.90
2018-06-15T20:47:59.968Z,49.80
2018-06-15T20:50:30.027Z,49.70
2018-06-15T20:53:00.807Z,50.10
2018-06-15T20:55:30.811Z,49.20
2018-06-15T20:58:00.778Z,49.20
2018-06-15T21:00:30.817Z,48.90
2018-06-15T21:03:00.817Z,48.80
2018-06-15T21:05:30.878Z,48.80
2018-06-15T21:08:01.058Z,48.70
2018-06-15T21:10:31.096Z,48.80
2018-06-15T21:13:01.137Z,49.00
2018-06-15T21:15:31.277Z,49.20
2018-06-15T21:18:01.380Z,49.20
2018-06-15T21:20:31.494Z,49.30
2018-06-15T21:23:01.578Z,49.30
2018-06-15T21:25:31.613Z,49.50
2018-06-15T21:28:01.694Z,49.70
2018-06-15T21:30:31.810Z,50.20
2018-06-15T21:33:01.975Z,50.50
2018-06-15T21:35:32.100Z,50.70
2018-06-15T21:38:02.250Z,50.60
2018-06-15T21:40:32.279Z,50.40
2018-06-15T21:43:02.301Z,50.30
2018-06-15T21:45:32.393Z,50.30
2018-06-15T21:48:02.495Z,50.30
2018-06-15T21:50:32.555Z,50.50
2018-06-15T21:53:02.649Z,50.90
2018-06-15T21:55:32.683Z,51.80
2018-06-15T21:58:02.721Z,51.60
2018-06-15T22:00:32.851Z,52.00
2018-06-15T22:03:02.894Z,52.30
2018-06-15T22:05:32.929Z,52.70
2018-06-15T22:08:02.977Z,52.90
2018-06-15T22:10:33.003Z,53.00
2018-06-15T22:13:03.032Z,53.20
2018-06-15T22:15:33.085Z,53.40
2018-06-15T22:18:03.171Z,53.50
2018-06-15T22:20:33.172Z,53.70
2018-06-15T22:23:03.139Z,53.80
2018-06-15T22:25:33.198Z,53.70
2018-06-15T22:28:03.181Z,53.80
2018-06-15T22:30:33.223Z,53.90
2018-06-15T22:33:03.240Z,53.90
2018-06-15T22:35:33.283Z,53.90
2018-06-15T22:38:03.247Z,53.90
2018-06-15T22:40:33.314Z,54.10
2018-06-15T22:43:03.452Z,54.20
2018-06-15T22:45:33.454Z,54.40
2018-06-15T22:48:03.535Z,54.50
2018-06-15T22:50:33.475Z,54.80
2018-06-15T22:53:03.597Z,55.10
2018-06-15T22:55:33.618Z,55.30
2018-06-15T22:58:03.732Z,55.40
2018-06-15T23:00:33.779Z,55.60
2018-06-15T23:03:03.839Z,55.80
2018-06-15T23:05:33.971Z,55.90
2018-06-15T23:08:03.971Z,56.30
2018-06-15T23:10:34.006Z,56.40
2018-06-15T23:13:03.975Z,56.20
2018-06-15T23:15:34.037Z,56.50
2018-06-15T23:18:04.117Z,56.40
2018-06-15T23:20:34.118Z,56.60
2018-06-15T23:23:04.061Z,56.80
2018-06-15T23:25:34.036Z,56.80
2018-06-15T23:28:03.975Z,56.90
2018-06-15T23:30:33.940Z,57.00
2018-06-15T23:33:03.910Z,57.70
2018-06-15T23:35:33.858Z,57.20
2018-06-15T23:38:03.815Z,57.40
2018-06-15T23:40:33.817Z,57.80
2018-06-15T23:43:03.788Z,57.60
2018-06-15T23:45:33.741Z,57.80
2018-06-15T23:48:03.828Z,57.90
2018-06-15T23:50:33.796Z,58.10
2018-06-15T23:53:03.793Z,58.10
2018-06-15T23:55:33.811Z,58.20
2018-06-15T23:58:03.783Z,58.30
